createdAt,value
2018-06-30T00:00:00.243Z,0
2018-06-30T00:01:02.145Z,0
2018-06-30T00:02:04.337Z,0
2018-06-30T00:03:10.781Z,0
2018-06-30T00:04:16.952Z,0
2018-06-30T00:05:18.728Z,0
2018-06-30T00:06:24.641Z,0
2018-06-30T00:07:30.614Z,0
2018-06-30T00:08:36.400Z,0
2018-06-30T00:09:41.543Z,0
2018-06-30T00:10:42.991Z,0
2018-06-30T00:11:49.429Z,0
2018-06-30T00:12:56.064Z,0
2018-06-30T00:13:58.079Z,0
2018-06-30T00:15:04.451Z,0
2018-06-30T00:16:09.535Z,0
2018-06-30T00:17:11.482Z,0
2018-06-30T00:18:18.357Z,0
2018-06-30T00:19:20.306Z,0
2018-06-30T00:20:22.431Z,0
2018-06-30T00:21:24.316Z,0
2018-06-30T00:22:29.574Z,0
2018-06-30T00:23:31.390Z,0
2018-06-30T00:24:38.350Z,0
2018-06-30T00:25:45.054Z,0
2018-06-30T00:26:50.372Z,0
2018-06-30T00:27:57.243Z,0
2018-06-30T00:29:03.698Z,0
2018-06-30T00:30:05.340Z,0
2018-06-30T00:31:09.259Z,0
2018-06-30T00:32:12.812Z,0
2018-06-30T00:33:20.211Z,0
2018-06-30T00:34:21.919Z,0
2018-06-30T00:35:29.448Z,0
2018-06-30T00:36:32.936Z,0
2018-06-30T00:37:36.207Z,0
2018-06-30T00:38:43.048Z,0
2018-06-30T00:39:45.132Z,0
2018-06-30T00:40:51.724Z,0
2018-06-30T00:41:53.535Z,0
2018-06-30T00:42:55.777Z,0
2018-06-30T00:44:01.081Z,0
2018-06-30T00:45:05.616Z,0
2018-06-30T00:46:07.558Z,0
2018-06-30T00:47:10.823Z,0
2018-06-30T00:48:12.885Z,0
2018-06-30T00:49:17.193Z,0
2018-06-30T00:50:19.043Z,0
2018-06-30T00:51:24.106Z,0
2018-06-30T00:52:30.509Z,0
2018-06-30T00:53:32.558Z,0
2018-06-30T00:54:34.618Z,0
2018-06-30T00:55:36.857Z,0
2018-06-30T00:56:38.851Z,0
2018-06-30T00:57:40.815Z,0
2018-06-30T00:58:47.387Z,0
2018-06-30T00:59:55.199Z,0
2018-06-30T01:00:56.868Z,0
2018-06-30T01:01:59.083Z,0
2018-06-30T01:03:01.130Z,0
2018-06-30T01:04:09.408Z,0
2018-06-30T01:05:16.132Z,0
2018-06-30T01:06:17.977Z,0
2018-06-30T01:07:19.897Z,0
2018-06-30T01:08:22.112Z,0
2018-06-30T01:09:24.334Z,0
2018-06-30T01:10:31.507Z,0
2018-06-30T01:11:38.767Z,0
2018-06-30T01:12:40.529Z,0
2018-06-30T01:13:42.732Z,0
2018-06-30T01:14:44.779Z,0
2018-06-30T01:15:46.733Z,0
2018-06-30T01:16:53.823Z,0
2018-06-30T01:17:55.562Z,0
2018-06-30T01:19:02.444Z,0
2018-06-30T01:20:08.683Z,0
2018-06-30T01:21:10.549Z,0
2018-06-30T01:22:13.070Z,0
2018-06-30T01:23:17.645Z,0
2018-06-30T01:24:23.018Z,0
2018-06-30T01:25:26.193Z,0
2018-06-30T01:26:28.242Z,0
2018-06-30T01:27:30.436Z,0
2018-06-30T01:28:32.421Z,0
2018-06-30T01:29:34.527Z,0
2018-06-30T01:30:37.968Z,0
2018-06-30T01:31:40.328Z,0
2018-06-30T01:32:42.379Z,0
2018-06-30T01:33:45.629Z,0
2018-06-30T01:34:47.659Z,0
2018-06-30T01:35:54.546Z,0
2018-06-30T01:37:00.443Z,0
2018-06-30T01:38:02.419Z,0
2018-06-30T01:39:04.441Z,0
2018-06-30T01:40:06.364Z,0
2018-06-30T01:41:09.766Z,0
2018-06-30T01:42:13.710Z,0
2018-06-30T01:43:16.600Z,0
2018-06-30T01:44:20.435Z,0
2018-06-30T01:45:24.083Z,0
2018-06-30T01:46:27.891Z,0
2018-06-30T01:47:31.320Z,0
2018-06-30T01:48:35.647Z,0
2018-06-30T01:49:38.638Z,0
2018-06-30T01:50:43.259Z,0
2018-06-30T01:51:45.053Z,0
2018-06-30T01:52:51.817Z,0
2018-06-30T01:53:58.842Z,0
2018-06-30T01:55:00.445Z,0
2018-06-30T01:56:02.491Z,0
2018-06-30T01:57:04.746Z,0
2018-06-30T01:58:09.336Z,0
2018-06-30T01:59:14.992Z,0
2018-06-30T02:00:16.985Z,0
2018-06-30T02:01:19.185Z,0
2018-06-30T02:02:25.008Z,0
2018-06-30T02:03:30.505Z,0
2018-06-30T02:04:36.963Z,0
2018-06-30T02:05:43.477Z,0
2018-06-30T02:06:45.319Z,0
2018-06-30T02:07:47.430Z,0
2018-06-30T02:08:56.068Z,0
2018-06-30T02:10:04.597Z,0
2018-06-30T02:11:06.452Z,0
2018-06-30T02:12:08.633Z,0
2018-06-30T02:13:10.776Z,0
2018-06-30T02:14:19.456Z,0
2018-06-30T02:15:21.033Z,0
2018-06-30T02:16:27.722Z,0
2018-06-30T02:17:34.344Z,0
2018-06-30T02:18:39.693Z,0
2018-06-30T02:19:41.775Z,0
2018-06-30T02:20:47.595Z,0
2018-06-30T02:21:51.933Z,0
2018-06-30T02:22:53.665Z,0
2018-06-30T02:23:55.885Z,0
2018-06-30T02:25:02.247Z,0
2018-06-30T02:26:03.763Z,0
2018-06-30T02:27:09.370Z,0
2018-06-30T02:28:11.556Z,0
2018-06-30T02:29:18.501Z,0
2018-06-30T02:30:20.211Z,4
2018-06-30T02:31:22.547Z,4
2018-06-30T02:32:29.079Z,4
2018-06-30T02:33:34.885Z,0
2018-06-30T02:34:39.864Z,4
2018-06-30T02:35:44.938Z,4
2018-06-30T02:36:46.820Z,0
2018-06-30T02:37:54.251Z,4
2018-06-30T02:39:03.062Z,4
2018-06-30T02:40:04.892Z,4
2018-06-30T02:41:07.127Z,8
2018-06-30T02:42:10.272Z,8
2018-06-30T02:43:16.145Z,8
2018-06-30T02:44:17.961Z,8
2018-06-30T02:45:23.164Z,8
2018-06-30T02:46:24.776Z,8
2018-06-30T02:47:28.570Z,12
2018-06-30T02:48:34.442Z,16
2018-06-30T02:49:39.330Z,20
2018-06-30T02:50:45.032Z,20
2018-06-30T02:51:47.058Z,20
2018-06-30T02:52:48.944Z,24
2018-06-30T02:53:52.930Z,28
2018-06-30T02:54:54.686Z,32
2018-06-30T02:55:56.801Z,32
2018-06-30T02:57:03.224Z,40
2018-06-30T02:58:04.907Z,44
2018-06-30T02:59:09.336Z,48
2018-06-30T03:00:11.141Z,56
2018-06-30T03:01:16.990Z,60
2018-06-30T03:02:18.776Z,68
2018-06-30T03:03:20.913Z,76
2018-06-30T03:04:27.121Z,84
2018-06-30T03:05:33.418Z,92
2018-06-30T03:06:39.227Z,108
2018-06-30T03:07:42.056Z,112
2018-06-30T03:08:47.905Z,124
2018-06-30T03:09:49.829Z,140
2018-06-30T03:10:56.172Z,148
2018-06-30T03:11:57.936Z,168
2018-06-30T03:13:03.669Z,180
2018-06-30T03:14:09.258Z,196
2018-06-30T03:15:10.959Z,212
2018-06-30T03:16:15.425Z,228
2018-06-30T03:17:19.936Z,248
2018-06-30T03:18:25.497Z,264
2018-06-30T03:19:27.134Z,284
2018-06-30T03:20:30.816Z,300
2018-06-30T03:21:34.166Z,324
2018-06-30T03:22:36.244Z,340
2018-06-30T03:23:39.354Z,360
2018-06-30T03:24:41.486Z,380
2018-06-30T03:25:45.289Z,408
2018-06-30T03:26:47.059Z,428
2018-06-30T03:27:54.096Z,452
2018-06-30T03:28:55.723Z,476
2018-06-30T03:29:57.545Z,500
2018-06-30T03:31:02.567Z,524
2018-06-30T03:32:04.279Z,552
2018-06-30T03:33:06.102Z,576
2018-06-30T03:34:09.503Z,600
2018-06-30T03:35:11.330Z,628
2018-06-30T03:36:17.426Z,652
2018-06-30T03:37:19.245Z,680
2018-06-30T03:38:25.355Z,708
2018-06-30T03:39:27.084Z,732
2018-06-30T03:40:30.056Z,760
2018-06-30T03:41:32.090Z,784
2018-06-30T03:42:33.862Z,812
2018-06-30T03:43:39.410Z,836
2018-06-30T03:44:41.623Z,860
2018-06-30T03:45:43.480Z,884
2018-06-30T03:46:45.683Z,908
2018-06-30T03:47:47.833Z,932
2018-06-30T03:48:53.013Z,960
2018-06-30T03:49:55.016Z,988
2018-06-30T03:50:59.966Z,1012
2018-06-30T03:52:03.604Z,1040
2018-06-30T03:53:05.266Z,1060
2018-06-30T03:54:07.151Z,1092
2018-06-30T03:55:09.023Z,1116
2018-06-30T03:56:11.197Z,1148
2018-06-30T03:57:13.335Z,1172
2018-06-30T03:58:15.487Z,1192
2018-06-30T03:59:17.596Z,1216
2018-06-30T04:00:21.789Z,1240
2018-06-30T04:01:23.748Z,1260
2018-06-30T04:02:30.103Z,1284
2018-06-30T04:03:36.621Z,1312
2018-06-30T04:04:39.692Z,1332
2018-06-30T04:05:44.369Z,1364
2018-06-30T04:06:46.098Z,1420
2018-06-30T04:07:48.273Z,1460
2018-06-30T04:08:49.992Z,1508
2018-06-30T04:09:56.709Z,1536
2018-06-30T04:10:59.851Z,1576
2018-06-30T04:12:07.009Z,1612
2018-06-30T04:13:08.642Z,1668
2018-06-30T04:14:10.391Z,1680
2018-06-30T04:15:13.339Z,1728
2018-06-30T04:16:19.753Z,1784
2018-06-30T04:17:21.526Z,1812
2018-06-30T04:18:23.708Z,1840
2018-06-30T04:19:25.851Z,1900
2018-06-30T04:20:32.344Z,1904
2018-06-30T04:21:34.507Z,1924
2018-06-30T04:22:36.634Z,1916
2018-06-30T04:23:38.377Z,1948
2018-06-30T04:24:40.421Z,1992
2018-06-30T04:25:42.624Z,2024
2018-06-30T04:26:44.676Z,2104
2018-06-30T04:27:50.908Z,2164
2018-06-30T04:28:52.551Z,2208
2018-06-30T04:29:54.735Z,2280
2018-06-30T04:30:56.988Z,2336
2018-06-30T04:32:03.360Z,2360
2018-06-30T04:33:04.785Z,2400
2018-06-30T04:34:06.989Z,2460
2018-06-30T04:35:11.942Z,2464
2018-06-30T04:36:16.674Z,2508
2018-06-30T04:37:18.634Z,2576
2018-06-30T04:38:20.820Z,2620
2018-06-30T04:39:24.553Z,2680
2018-06-30T04:40:26.732Z,2736
2018-06-30T04:41:28.700Z,2760
2018-06-30T04:42:30.776Z,2804
2018-06-30T04:43:36.631Z,2812
2018-06-30T04:44:42.961Z,2844
2018-06-30T04:45:49.340Z,2984
2018-06-30T04:46:51.139Z,3060
2018-06-30T04:47:53.018Z,3132
2018-06-30T04:48:55.201Z,3196
2018-06-30T04:49:59.739Z,3244
2018-06-30T04:51:04.552Z,3300
2018-06-30T04:52:06.153Z,3420
2018-06-30T04:53:12.463Z,3536
2018-06-30T04:54:14.481Z,3716
2018-06-30T04:55:16.577Z,4056
2018-06-30T04:56:18.499Z,4324
2018-06-30T04:57:20.427Z,4372
2018-06-30T04:58:22.375Z,4324
2018-06-30T04:59:25.952Z,4384
2018-06-30T05:00:27.750Z,4420
2018-06-30T05:01:31.893Z,4436
2018-06-30T05:02:36.900Z,4452
2018-06-30T05:03:42.137Z,4524
2018-06-30T05:04:44.010Z,4552
2018-06-30T05:05:47.129Z,4580
2018-06-30T05:06:49.076Z,4644
2018-06-30T05:07:51.226Z,4656
2018-06-30T05:08:53.184Z,4728
2018-06-30T05:09:55.343Z,4808
2018-06-30T05:10:58.763Z,4788
2018-06-30T05:12:04.627Z,4840
2018-06-30T05:13:09.398Z,4996
2018-06-30T05:14:16.732Z,5136
2018-06-30T05:15:21.810Z,5384
2018-06-30T05:16:28.019Z,5624
2018-06-30T05:17:32.391Z,5828
2018-06-30T05:18:40.135Z,5920
2018-06-30T05:19:41.987Z,5968
2018-06-30T05:20:47.315Z,5980
2018-06-30T05:21:48.992Z,5964
2018-06-30T05:22:51.850Z,5996
2018-06-30T05:23:53.777Z,6068
2018-06-30T05:24:57.023Z,6096
2018-06-30T05:25:59.075Z,6156
2018-06-30T05:27:02.241Z,6224
2018-06-30T05:28:07.871Z,6300
2018-06-30T05:29:10.234Z,6360
2018-06-30T05:30:12.271Z,6412
2018-06-30T05:31:14.358Z,6504
2018-06-30T05:32:16.008Z,6608
2018-06-30T05:33:17.836Z,6708
2018-06-30T05:34:19.607Z,6772
2018-06-30T05:35:21.508Z,6860
2018-06-30T05:36:23.262Z,6904
2018-06-30T05:37:25.169Z,6956
2018-06-30T05:38:27.341Z,7036
2018-06-30T05:39:29.939Z,7056
2018-06-30T05:40:31.577Z,7148
2018-06-30T05:41:33.439Z,7272
2018-06-30T05:42:35.908Z,7384
2018-06-30T05:43:37.724Z,7464
2018-06-30T05:44:40.424Z,7536
2018-06-30T05:45:42.148Z,7556
2018-06-30T05:46:43.832Z,7648
2018-06-30T05:47:45.643Z,7752
2018-06-30T05:48:47.444Z,7840
2018-06-30T05:49:49.086Z,7908
2018-06-30T05:50:50.896Z,7972
2018-06-30T05:51:52.569Z,8052
2018-06-30T05:52:54.285Z,8160
2018-06-30T05:53:56.077Z,8236
2018-06-30T05:54:58.276Z,8308
2018-06-30T05:56:00.619Z,8384
2018-06-30T05:57:02.336Z,8488
2018-06-30T05:58:04.734Z,8612
2018-06-30T05:59:07.128Z,8732
2018-06-30T06:00:08.911Z,8884
2018-06-30T06:01:10.704Z,9116
2018-06-30T06:02:13.154Z,9376
2018-06-30T06:03:14.836Z,9612
2018-06-30T06:04:16.735Z,9708
2018-06-30T06:05:18.425Z,9776
2018-06-30T06:06:20.170Z,9816
2018-06-30T06:07:22.289Z,9816
2018-06-30T06:08:24.309Z,9880
2018-06-30T06:09:26.626Z,10048
2018-06-30T06:10:28.676Z,10232
2018-06-30T06:11:30.869Z,10332
2018-06-30T06:12:32.632Z,10480
2018-06-30T06:13:34.390Z,10576
2018-06-30T06:14:36.438Z,10724
2018-06-30T06:15:38.167Z,10712
2018-06-30T06:16:40.040Z,10872
2018-06-30T06:17:41.847Z,10912
2018-06-30T06:18:43.556Z,10980
2018-06-30T06:19:45.807Z,11104
2018-06-30T06:20:47.930Z,11196
2018-06-30T06:21:49.928Z,11468
2018-06-30T06:22:52.095Z,11684
2018-06-30T06:23:53.851Z,11776
2018-06-30T06:24:55.508Z,12008
2018-06-30T06:25:57.343Z,12412
2018-06-30T06:26:59.117Z,12792
2018-06-30T06:28:00.935Z,13212
2018-06-30T06:29:02.727Z,13720
2018-06-30T06:30:09.139Z,13948
2018-06-30T06:31:12.237Z,13692
2018-06-30T06:32:13.842Z,13376
2018-06-30T06:33:22.476Z,13248
2018-06-30T06:34:26.554Z,13264
2018-06-30T06:35:32.735Z,13292
2018-06-30T06:36:34.423Z,13424
2018-06-30T06:37:36.299Z,13536
2018-06-30T06:38:39.818Z,13700
2018-06-30T06:39:44.282Z,13860
2018-06-30T06:40:46.108Z,14020
2018-06-30T06:41:52.021Z,14132
2018-06-30T06:42:53.899Z,14328
2018-06-30T06:43:58.016Z,14540
2018-06-30T06:44:59.956Z,14888
2018-06-30T06:46:01.784Z,15392
2018-06-30T06:47:03.702Z,15680
2018-06-30T06:48:09.651Z,15776
2018-06-30T06:49:13.427Z,15968
2018-06-30T06:50:15.149Z,16544
2018-06-30T06:51:17.762Z,17600
2018-06-30T06:52:20.913Z,18624
2018-06-30T06:53:22.852Z,19744
2018-06-30T06:54:24.611Z,22112
2018-06-30T06:55:32.708Z,25504
2018-06-30T06:56:34.412Z,29824
2018-06-30T06:57:36.213Z,34048
2018-06-30T06:58:38.072Z,36736
2018-06-30T06:59:39.843Z,38112
2018-06-30T07:00:41.696Z,40224
2018-06-30T07:01:43.431Z,45760
2018-06-30T07:02:45.307Z,53504
2018-06-30T07:03:47.057Z,64128
2018-06-30T07:04:48.811Z,84480
2018-06-30T07:05:51.957Z,101952
2018-06-30T07:06:54.709Z,93472
2018-06-30T07:07:56.413Z,76608
2018-06-30T07:08:58.091Z,63968
2018-06-30T07:09:59.901Z,56192
2018-06-30T07:11:01.694Z,48160
2018-06-30T07:12:03.525Z,41664
2018-06-30T07:13:05.436Z,41440
2018-06-30T07:14:07.253Z,40096
2018-06-30T07:15:08.991Z,34912
2018-06-30T07:16:10.995Z,34304
2018-06-30T07:17:13.720Z,35904
2018-06-30T07:18:16.113Z,33504
2018-06-30T07:19:18.006Z,30080
2018-06-30T07:20:19.769Z,28448
2018-06-30T07:21:21.552Z,28416
2018-06-30T07:22:27.017Z,29280
2018-06-30T07:23:29.875Z,28960
2018-06-30T07:24:31.507Z,27648
2018-06-30T07:25:33.296Z,27744
2018-06-30T07:26:35.079Z,28032
2018-06-30T07:27:36.888Z,27552
2018-06-30T07:28:38.694Z,27392
2018-06-30T07:29:40.427Z,28128
2018-06-30T07:30:42.276Z,28544
2018-06-30T07:31:44.107Z,27424
2018-06-30T07:32:45.830Z,26976
2018-06-30T07:33:47.559Z,27584
2018-06-30T07:34:49.377Z,28096
2018-06-30T07:35:51.057Z,28384
2018-06-30T07:36:52.848Z,30240
2018-06-30T07:37:54.686Z,31648
2018-06-30T07:38:57.010Z,32672
2018-06-30T07:39:58.752Z,33632
2018-06-30T07:41:00.531Z,32544
2018-06-30T07:42:02.953Z,31744
2018-06-30T07:43:04.772Z,32256
2018-06-30T07:44:08.058Z,31264
2018-06-30T07:45:09.848Z,29760
2018-06-30T07:46:13.338Z,30816
2018-06-30T07:47:15.549Z,33792
2018-06-30T07:48:17.202Z,33728
2018-06-30T07:49:19.034Z,31552
2018-06-30T07:50:20.832Z,31520
2018-06-30T07:51:23.534Z,33056
2018-06-30T07:52:25.301Z,36992
2018-06-30T07:53:27.089Z,44928
2018-06-30T07:54:28.988Z,50848
2018-06-30T07:55:30.875Z,48000
2018-06-30T07:56:32.739Z,40416
2018-06-30T07:57:34.660Z,35584
2018-06-30T07:58:37.490Z,31488
2018-06-30T07:59:39.736Z,26784
2018-06-30T08:00:41.559Z,24256
2018-06-30T08:01:43.337Z,23456
2018-06-30T08:02:45.629Z,22656
2018-06-30T08:03:47.219Z,21568
2018-06-30T08:04:49.816Z,20960
2018-06-30T08:05:51.524Z,20736
2018-06-30T08:06:53.478Z,20448
2018-06-30T08:07:55.325Z,20352
2018-06-30T08:08:57.134Z,20256
2018-06-30T08:09:58.908Z,19968
2018-06-30T08:11:00.760Z,19808
2018-06-30T08:12:02.583Z,18944
2018-06-30T08:13:04.437Z,17888
2018-06-30T08:14:06.297Z,16768
2018-06-30T08:15:08.065Z,15872
2018-06-30T08:16:10.027Z,14980
2018-06-30T08:17:11.886Z,14212
2018-06-30T08:18:13.741Z,13556
2018-06-30T08:19:16.051Z,13160
2018-06-30T08:20:17.926Z,13028
2018-06-30T08:21:19.916Z,13076
2018-06-30T08:22:22.422Z,13128
2018-06-30T08:23:24.220Z,13276
2018-06-30T08:24:25.997Z,13352
2018-06-30T08:25:27.895Z,13300
2018-06-30T08:26:29.667Z,13196
2018-06-30T08:27:31.451Z,13128
2018-06-30T08:28:33.197Z,13080
2018-06-30T08:29:36.316Z,13008
2018-06-30T08:30:37.936Z,13064
2018-06-30T08:31:40.267Z,13084
2018-06-30T08:32:43.495Z,13092
2018-06-30T08:33:45.175Z,13104
2018-06-30T08:34:47.068Z,13084
2018-06-30T08:35:48.906Z,13148
2018-06-30T08:36:51.175Z,13072
2018-06-30T08:37:54.276Z,13072
2018-06-30T08:38:56.646Z,13016
2018-06-30T08:39:58.424Z,13024
2018-06-30T08:41:01.036Z,13016
2018-06-30T08:42:02.809Z,13072
2018-06-30T08:43:04.839Z,13096
2018-06-30T08:44:06.697Z,13132
2018-06-30T08:45:08.434Z,13148
2018-06-30T08:46:10.978Z,13148
2018-06-30T08:47:12.913Z,13156
2018-06-30T08:48:17.546Z,13160
2018-06-30T08:49:19.754Z,13236
2018-06-30T08:50:21.612Z,13204
2018-06-30T08:51:23.384Z,13244
2018-06-30T08:52:25.272Z,13316
2018-06-30T08:53:27.072Z,13304
2018-06-30T08:54:28.969Z,13364
2018-06-30T08:55:31.423Z,13392
2018-06-30T08:56:33.352Z,13468
2018-06-30T08:57:35.101Z,13484
2018-06-30T08:58:36.859Z,13564
2018-06-30T08:59:38.602Z,13664
2018-06-30T09:00:40.403Z,13720
2018-06-30T09:01:42.150Z,13816
2018-06-30T09:02:43.969Z,13920
2018-06-30T09:03:46.392Z,14008
2018-06-30T09:04:48.118Z,14080
2018-06-30T09:05:49.822Z,14292
2018-06-30T09:06:51.650Z,14456
2018-06-30T09:07:54.144Z,16128
2018-06-30T09:08:57.270Z,43680
2018-06-30T09:09:58.892Z,75616
2018-06-30T09:11:01.218Z,80736
2018-06-30T09:12:03.141Z,79648
2018-06-30T09:13:04.833Z,77856
2018-06-30T09:14:06.687Z,79168
2018-06-30T09:15:08.474Z,78272
2018-06-30T09:16:10.427Z,78944
2018-06-30T09:17:12.151Z,80064
2018-06-30T09:18:13.977Z,78272
2018-06-30T09:19:15.813Z,78400
2018-06-30T09:20:17.744Z,82720
2018-06-30T09:21:20.720Z,82784
2018-06-30T09:22:22.507Z,82016
2018-06-30T09:23:25.045Z,82944
2018-06-30T09:24:28.065Z,85856
2018-06-30T09:25:32.416Z,85760
2018-06-30T09:26:34.998Z,86592
2018-06-30T09:27:36.781Z,84352
2018-06-30T09:28:38.533Z,81600
2018-06-30T09:29:40.528Z,84736
2018-06-30T09:30:42.251Z,85856
2018-06-30T09:31:44.173Z,86240
2018-06-30T09:32:45.888Z,89504
2018-06-30T09:33:47.781Z,79776
2018-06-30T09:34:50.799Z,81632
2018-06-30T09:35:52.723Z,88480
2018-06-30T09:36:54.491Z,85152
2018-06-30T09:37:56.465Z,84800
2018-06-30T09:38:58.194Z,88352
2018-06-30T09:40:00.109Z,88608
2018-06-30T09:41:02.044Z,90816
2018-06-30T09:42:03.930Z,90656
2018-06-30T09:43:05.935Z,89376
2018-06-30T09:44:07.715Z,92192
2018-06-30T09:45:13.508Z,92192
2018-06-30T09:46:15.421Z,91616
2018-06-30T09:47:17.264Z,91296
2018-06-30T09:48:19.084Z,93632
2018-06-30T09:49:25.700Z,91488
2018-06-30T09:50:27.490Z,90272
2018-06-30T09:51:29.246Z,92416
2018-06-30T09:52:31.088Z,93248
2018-06-30T09:53:32.975Z,93792
2018-06-30T09:54:36.364Z,92448
2018-06-30T09:55:38.016Z,86336
2018-06-30T09:56:39.872Z,87872
2018-06-30T09:57:41.671Z,91456
2018-06-30T09:58:43.469Z,90624
2018-06-30T09:59:45.304Z,89568
2018-06-30T10:00:47.131Z,92192
2018-06-30T10:01:52.370Z,90816
2018-06-30T10:02:54.192Z,90912
2018-06-30T10:03:56.044Z,90752
2018-06-30T10:04:57.829Z,89408
2018-06-30T10:05:59.588Z,92064
2018-06-30T10:07:01.417Z,94240
2018-06-30T10:08:04.820Z,92192
2018-06-30T10:09:06.519Z,91744
2018-06-30T10:10:11.543Z,94464
2018-06-30T10:11:16.348Z,93792
2018-06-30T10:12:21.406Z,91552
2018-06-30T10:13:27.409Z,88320
2018-06-30T10:14:31.480Z,88704
2018-06-30T10:15:33.168Z,90112
2018-06-30T10:16:35.004Z,92320
2018-06-30T10:17:36.815Z,93344
2018-06-30T10:18:40.342Z,92224
2018-06-30T10:19:42.266Z,92480
2018-06-30T10:20:44.120Z,95168
2018-06-30T10:21:46.093Z,96448
2018-06-30T10:22:47.939Z,95648
2018-06-30T10:23:51.938Z,94528
2018-06-30T10:24:53.592Z,96256
2018-06-30T10:25:55.417Z,96448
2018-06-30T10:26:57.265Z,97056
2018-06-30T10:28:01.890Z,97824
2018-06-30T10:29:03.802Z,98240
2018-06-30T10:30:08.831Z,98368
2018-06-30T10:31:17.743Z,100160
2018-06-30T10:32:19.605Z,100544
2018-06-30T10:33:21.370Z,100800
2018-06-30T10:34:23.201Z,100800
2018-06-30T10:35:25.049Z,102048
2018-06-30T10:36:26.916Z,103360
2018-06-30T10:37:31.472Z,102336
2018-06-30T10:38:33.298Z,101568
2018-06-30T10:39:35.047Z,100960
2018-06-30T10:40:37.006Z,102368
2018-06-30T10:41:40.135Z,102784
2018-06-30T10:42:42.020Z,104160
